sensor_id;sensor_type;location;lat;lon;timestamp;pressure;altitude;pressure_sealevel;temperature;humidity
69245;BME280;56357;52.304;4.870;2023-06-10T00:00:41;101760.16;;;25.55;46.70
69245;BME280;56357;52.304;4.870;2023-06-10T00:03:07;101766.03;;;25.58;46.41
69245;BME280;56357;52.304;4.870;2023-06-10T00:05:34;101760.44;;;25.53;46.68
69245;BME280;56357;52.304;4.870;2023-06-10T00:08:04;101766.41;;;25.52;46.77
69245;BME280;56357;52.304;4.870;2023-06-10T00:10:37;101754.97;;;25.38;46.89
69245;BME280;56357;52.304;4.870;2023-06-10T00:13:04;101759.44;;;25.44;47.09
69245;BME280;56357;52.304;4.870;2023-06-10T00:15:33;101769.13;;;25.43;46.18
69245;BME280;56357;52.304;4.870;2023-06-10T00:18:00;101763.78;;;25.42;46.64
69245;BME280;56357;52.304;4.870;2023-06-10T00:20:28;101766.59;;;25.42;46.51
69245;BME280;56357;52.304;4.870;2023-06-10T00:22:55;101766.50;;;25.47;46.56
69245;BME280;56357;52.304;4.870;2023-06-10T00:25:22;101768.59;;;25.41;47.02
69245;BME280;56357;52.304;4.870;2023-06-10T00:27:49;101763.25;;;25.34;46.43
69245;BME280;56357;52.304;4.870;2023-06-10T00:30:15;101759.56;;;25.34;46.87
69245;BME280;56357;52.304;4.870;2023-06-10T00:32:41;101761.06;;;25.31;46.88
69245;BME280;56357;52.304;4.870;2023-06-10T00:35:08;101759.13;;;25.27;47.08
69245;BME280;56357;52.304;4.870;2023-06-10T00:37:35;101762.50;;;25.29;46.39
69245;BME280;56357;52.304;4.870;2023-06-10T00:40:03;101763.94;;;25.26;46.74
69245;BME280;56357;52.304;4.870;2023-06-10T00:42:29;101757.47;;;25.26;46.92
69245;BME280;56357;52.304;4.870;2023-06-10T00:44:56;101763.94;;;25.26;46.41
69245;BME280;56357;52.304;4.870;2023-06-10T00:47:22;101765.13;;;25.25;46.52
69245;BME280;56357;52.304;4.870;2023-06-10T00:49:50;101766.78;;;25.26;46.52
69245;BME280;56357;52.304;4.870;2023-06-10T00:52:17;101762.44;;;25.15;46.53
69245;BME280;56357;52.304;4.870;2023-06-10T00:54:44;101767.09;;;25.25;46.13
69245;BME280;56357;52.304;4.870;2023-06-10T00:57:12;101771.78;;;25.16;46.84
69245;BME280;56357;52.304;4.870;2023-06-10T00:59:40;101778.84;;;25.18;46.77
69245;BME280;56357;52.304;4.870;2023-06-10T01:02:07;101769.25;;;25.14;46.68
69245;BME280;56357;52.304;4.870;2023-06-10T01:04:34;101769.72;;;25.21;46.33
69245;BME280;56357;52.304;4.870;2023-06-10T01:07:23;101769.25;;;25.14;46.55
69245;BME280;56357;52.304;4.870;2023-06-10T01:12:46;101772.38;;;25.13;46.43
69245;BME280;56357;52.304;4.870;2023-06-10T01:15:17;101769.81;;;25.16;46.64
69245;BME280;56357;52.304;4.870;2023-06-10T01:20:27;101771.25;;;25.14;46.34
69245;BME280;56357;52.304;4.870;2023-06-10T01:22:55;101773.31;;;25.08;46.36
69245;BME280;56357;52.304;4.870;2023-06-10T01:25:23;101772.25;;;25.04;46.38
69245;BME280;56357;52.304;4.870;2023-06-10T01:28:04;101767.44;;;25.05;46.23
69245;BME280;56357;52.304;4.870;2023-06-10T01:30:43;101774.16;;;25.09;46.26
69245;BME280;56357;52.304;4.870;2023-06-10T01:33:14;101768.25;;;25.05;46.13
69245;BME280;56357;52.304;4.870;2023-06-10T01:35:43;101765.50;;;25.00;46.63
69245;BME280;56357;52.304;4.870;2023-06-10T01:38:11;101764.09;;;24.98;46.21
69245;BME280;56357;52.304;4.870;2023-06-10T01:40:39;101766.63;;;24.99;46.01
69245;BME280;56357;52.304;4.870;2023-06-10T01:43:05;101766.63;;;24.99;45.83
69245;BME280;56357;52.304;4.870;2023-06-10T01:45:32;101768.63;;;24.99;46.29
69245;BME280;56357;52.304;4.870;2023-06-10T01:47:58;101766.34;;;25.01;46.03
69245;BME280;56357;52.304;4.870;2023-06-10T01:50:24;101766.63;;;24.99;45.91
69245;BME280;56357;52.304;4.870;2023-06-10T01:52:51;101770.00;;;25.01;46.03
69245;BME280;56357;52.304;4.870;2023-06-10T01:55:17;101769.47;;;24.99;46.28
69245;BME280;56357;52.304;4.870;2023-06-10T01:57:44;101771.25;;;24.95;46.15
69245;BME280;56357;52.304;4.870;2023-06-10T02:00:10;101775.22;;;24.94;46.32
69245;BME280;56357;52.304;4.870;2023-06-10T02:02:39;101770.44;;;24.90;46.49
69245;BME280;56357;52.304;4.870;2023-06-10T02:05:06;101775.13;;;24.99;46.47
69245;BME280;56357;52.304;4.870;2023-06-10T02:07:32;101775.66;;;25.01;46.34
69245;BME280;56357;52.304;4.870;2023-06-10T02:09:58;101769.09;;;24.87;46.60
69245;BME280;56357;52.304;4.870;2023-06-10T02:12:25;101776.44;;;24.88;46.85
69245;BME280;56357;52.304;4.870;2023-06-10T02:14:51;101771.53;;;24.94;46.59
69245;BME280;56357;52.304;4.870;2023-06-10T02:17:18;101771.25;;;24.95;46.47
69245;BME280;56357;52.304;4.870;2023-06-10T02:19:44;101771.28;;;24.90;46.48
69245;BME280;56357;52.304;4.870;2023-06-10T02:22:20;101772.06;;;24.77;46.62
69245;BME280;56357;52.304;4.870;2023-06-10T02:24:48;101780.19;;;24.84;46.28
69245;BME280;56357;52.304;4.870;2023-06-10T02:27:15;101782.53;;;24.77;46.80
69245;BME280;56357;52.304;4.870;2023-06-10T02:29:42;101785.69;;;24.75;46.69
69245;BME280;56357;52.304;4.870;2023-06-10T02:32:09;101782.22;;;24.78;47.13
69245;BME280;56357;52.304;4.870;2023-06-10T02:34:35;101780.47;;;24.82;47.05
69245;BME280;56357;52.304;4.870;2023-06-10T02:37:02;101785.59;;;24.80;47.25
69245;BME280;56357;52.304;4.870;2023-06-10T02:39:29;101779.38;;;24.78;46.60
69245;BME280;56357;52.304;4.870;2023-06-10T02:41:55;101781.19;;;24.74;46.88
69245;BME280;56357;52.304;4.870;2023-06-10T02:44:22;101783.72;;;24.71;46.98
69245;BME280;56357;52.304;4.870;2023-06-10T02:46:48;101775.81;;;24.68;46.86
69245;BME280;56357;52.304;4.870;2023-06-10T02:49:14;101777.50;;;24.74;46.91
69245;BME280;56357;52.304;4.870;2023-06-10T02:51:41;101782.88;;;24.70;46.82
69245;BME280;56357;52.304;4.870;2023-06-10T02:54:07;101781.19;;;24.69;46.96
69245;BME280;56357;52.304;4.870;2023-06-10T02:56:34;101783.47;;;24.72;47.01
69245;BME280;56357;52.304;4.870;2023-06-10T02:59:01;101775.50;;;24.74;47.05
69245;BME280;56357;52.304;4.870;2023-06-10T03:01:28;101784.41;;;24.63;47.22
69245;BME280;56357;52.304;4.870;2023-06-10T03:03:56;101782.13;;;24.65;46.94
69245;BME280;56357;52.304;4.870;2023-06-10T03:06:23;101770.25;;;24.63;47.02
69245;BME280;56357;52.304;4.870;2023-06-10T03:08:51;101785.75;;;24.65;47.05
69245;BME280;56357;52.304;4.870;2023-06-10T03:11:17;101775.59;;;24.64;47.20
69245;BME280;56357;52.304;4.870;2023-06-10T03:13:44;101783.47;;;24.67;47.07
69245;BME280;56357;52.304;4.870;2023-06-10T03:16:11;101781.31;;;24.59;47.42
69245;BME280;56357;52.304;4.870;2023-06-10T03:18:38;101783.88;;;24.61;47.34
69245;BME280;56357;52.304;4.870;2023-06-10T03:21:04;101775.66;;;24.59;47.19
69245;BME280;56357;52.304;4.870;2023-06-10T03:23:31;101784.44;;;24.58;47.38
69245;BME280;56357;52.304;4.870;2023-06-10T03:25:58;101781.31;;;24.59;46.86
69245;BME280;56357;52.304;4.870;2023-06-10T03:28:25;101785.31;;;24.58;46.96
69245;BME280;56357;52.304;4.870;2023-06-10T03:30:52;101781.31;;;24.59;46.92
69245;BME280;56357;52.304;4.870;2023-06-10T03:33:18;101780.25;;;24.55;47.14
69245;BME280;56357;52.304;4.870;2023-06-10T03:35:45;101781.06;;;24.56;47.22
69245;BME280;56357;52.304;4.870;2023-06-10T03:38:11;101789.03;;;24.53;47.11
69245;BME280;56357;52.304;4.870;2023-06-10T03:40:37;101789.66;;;24.50;47.19
69245;BME280;56357;52.304;4.870;2023-06-10T03:43:04;101788.22;;;24.53;47.04
69245;BME280;56357;52.304;4.870;2023-06-10T03:45:30;101788.97;;;24.59;47.13
69245;BME280;56357;52.304;4.870;2023-06-10T03:47:57;101794.69;;;24.53;47.24
69245;BME280;56357;52.304;4.870;2023-06-10T03:50:24;101796.41;;;24.55;47.21
69245;BME280;56357;52.304;4.870;2023-06-10T03:52:51;101796.63;;;24.58;46.59
69245;BME280;56357;52.304;4.870;2023-06-10T03:55:17;101802.91;;;24.55;46.84
69245;BME280;56357;52.304;4.870;2023-06-10T03:57:47;101798.22;;;24.45;47.18
69245;BME280;56357;52.304;4.870;2023-06-10T04:00:15;101802.94;;;24.50;47.18
69245;BME280;56357;52.304;4.870;2023-06-10T04:02:42;101801.56;;;24.47;46.88
69245;BME280;56357;52.304;4.870;2023-06-10T04:05:20;101801.56;;;24.47;47.01
69245;BME280;56357;52.304;4.870;2023-06-10T04:07:47;101808.06;;;24.48;46.96
69245;BME280;56357;52.304;4.870;2023-06-10T04:10:15;101805.56;;;24.46;46.63
69245;BME280;56357;52.304;4.870;2023-06-10T04:12:41;101812.06;;;24.47;47.13
69245;BME280;56357;52.304;4.870;2023-06-10T04:15:08;101812.31;;;24.50;46.91
69245;BME280;56357;52.304;4.870;2023-06-10T04:17:35;101810.34;;;24.46;47.09
69245;BME280;56357;52.304;4.870;2023-06-10T04:20:01;101808.69;;;24.45;46.72
69245;BME280;56357;52.304;4.870;2023-06-10T04:22:29;101810.13;;;24.42;46.87
69245;BME280;56357;52.304;4.870;2023-06-10T04:24:55;101813.50;;;24.44;47.03
69245;BME280;56357;52.304;4.870;2023-06-10T04:27:22;101814.66;;;24.43;46.89
69245;BME280;56357;52.304;4.870;2023-06-10T04:29:48;101824.22;;;24.47;46.76
69245;BME280;56357;52.304;4.870;2023-06-10T04:32:15;101818.31;;;24.44;47.29
69245;BME280;56357;52.304;4.870;2023-06-10T04:34:41;101825.69;;;24.45;46.60
69245;BME280;56357;52.304;4.870;2023-06-10T04:37:07;101821.69;;;24.46;47.14
69245;BME280;56357;52.304;4.870;2023-06-10T04:39:34;101832.78;;;24.42;47.14
69245;BME280;56357;52.304;4.870;2023-06-10T04:42:00;101819.47;;;24.43;46.96
69245;BME280;56357;52.304;4.870;2023-06-10T04:44:27;101821.44;;;24.42;46.90
69245;BME280;56357;52.304;4.870;2023-06-10T04:46:53;101830.50;;;24.44;46.98
69245;BME280;56357;52.304;4.870;2023-06-10T04:49:20;101826.88;;;24.39;47.23
69245;BME280;56357;52.304;4.870;2023-06-10T04:51:46;101835.59;;;24.42;46.77
69245;BME280;56357;52.304;4.870;2023-06-10T04:54:12;101837.00;;;24.45;47.24
69245;BME280;56357;52.304;4.870;2023-06-10T04:56:39;101836.78;;;24.41;47.20
69245;BME280;56357;52.304;4.870;2023-06-10T04:59:05;101835.50;;;24.52;47.08
69245;BME280;56357;52.304;4.870;2023-06-10T05:01:32;101835.84;;;24.46;46.77
69245;BME280;56357;52.304;4.870;2023-06-10T05:03:58;101835.84;;;24.46;46.81
69245;BME280;56357;52.304;4.870;2023-06-10T05:06:25;101833.00;;;24.46;47.20
69245;BME280;56357;52.304;4.870;2023-06-10T05:08:51;101833.38;;;24.39;47.05
69245;BME280;56357;52.304;4.870;2023-06-10T05:11:17;101829.09;;;24.42;47.54
69245;BME280;56357;52.304;4.870;2023-06-10T05:13:44;101830.81;;;24.43;47.51
69245;BME280;56357;52.304;4.870;2023-06-10T05:16:10;101829.72;;;24.39;47.53
69245;BME280;56357;52.304;4.870;2023-06-10T05:18:37;101835.38;;;24.39;47.79
69245;BME280;56357;52.304;4.870;2023-06-10T05:21:03;101833.94;;;24.41;47.92
69245;BME280;56357;52.304;4.870;2023-06-10T05:23:30;101835.31;;;24.44;47.88
69245;BME280;56357;52.304;4.870;2023-06-10T05:25:56;101839.78;;;24.50;47.31
69245;BME280;56357;52.304;4.870;2023-06-10T05:28:23;101834.09;;;24.50;47.22
69245;BME280;56357;52.304;4.870;2023-06-10T05:30:50;101828.69;;;24.53;47.28
69245;BME280;56357;52.304;4.870;2023-06-10T05:33:16;101828.91;;;24.57;48.03
69245;BME280;56357;52.304;4.870;2023-06-10T05:35:43;101831.72;;;24.62;47.79
69245;BME280;56357;52.304;4.870;2023-06-10T05:38:09;101832.50;;;24.68;47.52
69245;BME280;56357;52.304;4.870;2023-06-10T05:40:36;101832.19;;;24.69;47.39
69245;BME280;56357;52.304;4.870;2023-06-10T05:43:02;101833.88;;;24.70;47.04
69245;BME280;56357;52.304;4.870;2023-06-10T05:45:29;101831.09;;;24.65;47.68
69245;BME280;56357;52.304;4.870;2023-06-10T05:47:55;101843.28;;;24.66;48.86
69245;BME280;56357;52.304;4.870;2023-06-10T05:50:21;101839.50;;;24.75;48.37
69245;BME280;56357;52.304;4.870;2023-06-10T05:52:48;101836.91;;;24.79;47.88
69245;BME280;56357;52.304;4.870;2023-06-10T05:55:14;101843.50;;;24.74;48.41
69245;BME280;56357;52.304;4.870;2023-06-10T05:57:41;101838.13;;;24.73;48.42
69245;BME280;56357;52.304;4.870;2023-06-10T06:00:08;101846.56;;;24.78;48.26
69245;BME280;56357;52.304;4.870;2023-06-10T06:02:34;101847.34;;;24.83;48.57
69245;BME280;56357;52.304;4.870;2023-06-10T06:05:01;101840.16;;;24.91;48.57
69245;BME280;56357;52.304;4.870;2023-06-10T06:07:27;101847.28;;;24.88;48.24
69245;BME280;56357;52.304;4.870;2023-06-10T06:09:54;101847.59;;;24.87;48.46
69245;BME280;56357;52.304;4.870;2023-06-10T06:12:20;101843.78;;;24.96;48.82
69245;BME280;56357;52.304;4.870;2023-06-10T06:14:47;101841.03;;;24.91;48.44
69245;BME280;56357;52.304;4.870;2023-06-10T06:17:14;101837.78;;;24.98;48.46
69245;BME280;56357;52.304;4.870;2023-06-10T06:19:41;101841.78;;;24.97;48.18
69245;BME280;56357;52.304;4.870;2023-06-10T06:22:08;101843.69;;;25.01;48.59
69245;BME280;56357;52.304;4.870;2023-06-10T06:24:35;101844.00;;;25.00;48.42
69245;BME280;56357;52.304;4.870;2023-06-10T06:27:01;101848.69;;;25.09;49.06
69245;BME280;56357;52.304;4.870;2023-06-10T06:29:28;101839.53;;;25.17;48.29
69245;BME280;56357;52.304;4.870;2023-06-10T06:31:55;101838.97;;;25.15;48.51
69245;BME280;56357;52.304;4.870;2023-06-10T06:34:21;101839.88;;;25.11;48.67
69245;BME280;56357;52.304;4.870;2023-06-10T06:36:48;101847.88;;;25.09;48.51
69245;BME280;56357;52.304;4.870;2023-06-10T06:39:15;101848.66;;;25.14;48.51
69245;BME280;56357;52.304;4.870;2023-06-10T06:41:41;101839.53;;;25.17;49.42
69245;BME280;56357;52.304;4.870;2023-06-10T06:44:08;101851.84;;;25.08;48.57
69245;BME280;56357;52.304;4.870;2023-06-10T06:46:34;101848.56;;;25.19;48.41
69245;BME280;56357;52.304;4.870;2023-06-10T06:49:01;101850.72;;;25.27;48.41
69245;BME280;56357;52.304;4.870;2023-06-10T06:51:28;101843.88;;;25.28;49.11
69245;BME280;56357;52.304;4.870;2023-06-10T06:53:54;101845.28;;;25.31;48.85
69245;BME280;56357;52.304;4.870;2023-06-10T06:56:23;101848.34;;;25.34;48.61
69245;BME280;56357;52.304;4.870;2023-06-10T06:58:51;101846.03;;;25.42;48.38
69245;BME280;56357;52.304;4.870;2023-06-10T07:01:18;101846.53;;;25.44;48.64
69245;BME280;56357;52.304;4.870;2023-06-10T07:03:44;101847.16;;;25.41;48.95
69245;BME280;56357;52.304;4.870;2023-06-10T07:06:12;101849.13;;;25.40;48.93
69245;BME280;56357;52.304;4.870;2023-06-10T07:08:39;101846.25;;;25.45;48.75
69245;BME280;56357;52.304;4.870;2023-06-10T07:11:05;101848.78;;;25.47;49.20
69245;BME280;56357;52.304;4.870;2023-06-10T07:13:32;101844.06;;;25.37;48.71
69245;BME280;56357;52.304;4.870;2023-06-10T07:15:58;101846.31;;;25.40;48.41
69245;BME280;56357;52.304;4.870;2023-06-10T07:18:25;101846.13;;;25.31;48.28
69245;BME280;56357;52.304;4.870;2023-06-10T07:20:51;101842.66;;;25.40;48.39
69245;BME280;56357;52.304;4.870;2023-06-10T07:23:18;101852.50;;;25.42;48.23
69245;BME280;56357;52.304;4.870;2023-06-10T07:25:44;101842.03;;;25.43;48.19
69245;BME280;56357;52.304;4.870;2023-06-10T07:28:11;101845.16;;;25.41;48.01
69245;BME280;56357;52.304;4.870;2023-06-10T07:30:37;101847.16;;;25.41;47.84
69245;BME280;56357;52.304;4.870;2023-06-10T07:33:03;101853.38;;;25.43;48.16
69245;BME280;56357;52.304;4.870;2023-06-10T07:35:32;101854.00;;;25.40;47.96
69245;BME280;56357;52.304;4.870;2023-06-10T07:37:59;101851.97;;;25.40;48.29
69245;BME280;56357;52.304;4.870;2023-06-10T07:40:25;101861.34;;;25.41;48.71
69245;BME280;56357;52.304;4.870;2023-06-10T07:42:51;101864.47;;;25.39;48.86
69245;BME280;56357;52.304;4.870;2023-06-10T07:45:19;101865.88;;;25.42;48.48
69245;BME280;56357;52.304;4.870;2023-06-10T07:47:45;101858.13;;;25.47;48.13
69245;BME280;56357;52.304;4.870;2023-06-10T07:50:11;101869.47;;;25.47;48.21
69245;BME280;56357;52.304;4.870;2023-06-10T07:52:38;101866.00;;;25.50;48.59
69245;BME280;56357;52.304;4.870;2023-06-10T07:55:05;101871.69;;;25.50;47.77
69245;BME280;56357;52.304;4.870;2023-06-10T07:57:31;101867.72;;;25.51;47.93
69245;BME280;56357;52.304;4.870;2023-06-10T08:00:02;101872.84;;;25.49;47.99
69245;BME280;56357;52.304;4.870;2023-06-10T08:02:29;101869.69;;;25.51;47.92
69245;BME280;56357;52.304;4.870;2023-06-10T08:04:56;101868.16;;;25.58;48.57
69245;BME280;56357;52.304;4.870;2023-06-10T08:07:22;101867.53;;;25.61;48.14
69245;BME280;56357;52.304;4.870;2023-06-10T08:09:48;101873.44;;;25.65;47.81
69245;BME280;56357;52.304;4.870;2023-06-10T08:12:15;101866.72;;;25.61;47.88
69245;BME280;56357;52.304;4.870;2023-06-10T08:14:41;101866.09;;;25.64;47.62
69245;BME280;56357;52.304;4.870;2023-06-10T08:17:08;101858.75;;;25.63;46.80
69245;BME280;56357;52.304;4.870;2023-06-10T08:19:34;101858.97;;;25.66;47.05
69245;BME280;56357;52.304;4.870;2023-06-10T08:22:00;101854.75;;;25.64;46.81
69245;BME280;56357;52.304;4.870;2023-06-10T08:24:27;101859.34;;;25.60;46.72
69245;BME280;56357;52.304;4.870;2023-06-10T08:26:54;101859.03;;;25.61;47.41
69245;BME280;56357;52.304;4.870;2023-06-10T08:29:21;101864.94;;;25.65;46.92
69245;BME280;56357;52.304;4.870;2023-06-10T08:31:48;101860.63;;;25.67;46.95
69245;BME280;56357;52.304;4.870;2023-06-10T08:34:14;101862.56;;;25.72;47.63
69245;BME280;56357;52.304;4.870;2023-06-10T08:36:41;101867.69;;;25.70;47.79
69245;BME280;56357;52.304;4.870;2023-06-10T08:39:08;101866.25;;;25.72;47.28
69245;BME280;56357;52.304;4.870;2023-06-10T08:41:39;101876.44;;;25.73;47.08
69245;BME280;56357;52.304;4.870;2023-06-10T08:44:17;101872.47;;;25.74;47.32
69245;BME280;56357;52.304;4.870;2023-06-10T08:46:47;101873.28;;;25.75;47.21
69245;BME280;56357;52.304;4.870;2023-06-10T08:49:18;101867.59;;;25.75;47.38
69245;BME280;56357;52.304;4.870;2023-06-10T08:51:48;101870.97;;;25.77;47.24
69245;BME280;56357;52.304;4.870;2023-06-10T08:54:20;101873.75;;;25.82;47.09
69245;BME280;56357;52.304;4.870;2023-06-10T08:56:51;101879.44;;;25.82;47.07
69245;BME280;56357;52.304;4.870;2023-06-10T08:59:20;101875.22;;;25.79;47.21
69245;BME280;56357;52.304;4.870;2023-06-10T09:01:47;101880.25;;;25.82;46.76
69245;BME280;56357;52.304;4.870;2023-06-10T09:04:14;101881.97;;;25.83;46.87
69245;BME280;56357;52.304;4.870;2023-06-10T09:06:43;101874.81;;;25.86;46.71
69245;BME280;56357;52.304;4.870;2023-06-10T09:09:11;101880.25;;;25.82;46.63
69245;BME280;56357;52.304;4.870;2023-06-10T09:11:38;101880.47;;;25.86;46.67
69245;BME280;56357;52.304;4.870;2023-06-10T09:14:05;101885.56;;;25.89;47.20
69245;BME280;56357;52.304;4.870;2023-06-10T09:16:32;101877.16;;;25.97;47.65
69245;BME280;56357;52.304;4.870;2023-06-10T09:18:58;101877.16;;;25.97;47.89
69245;BME280;56357;52.304;4.870;2023-06-10T09:21:25;101878.56;;;26.00;47.17
69245;BME280;56357;52.304;4.870;2023-06-10T09:23:52;101874.31;;;25.97;47.65
69245;BME280;56357;52.304;4.870;2023-06-10T09:26:18;101876.94;;;25.94;46.73
69245;BME280;56357;52.304;4.870;2023-06-10T09:28:48;101872.66;;;25.96;47.03
69245;BME280;56357;52.304;4.870;2023-06-10T09:31:16;101871.47;;;25.97;47.09
69245;BME280;56357;52.304;4.870;2023-06-10T09:33:44;101874.03;;;25.99;47.26
69245;BME280;56357;52.304;4.870;2023-06-10T09:36:11;101874.63;;;25.96;47.14
69245;BME280;56357;52.304;4.870;2023-06-10T09:38:37;101876.56;;;26.00;46.92
69245;BME280;56357;52.304;4.870;2023-06-10T09:41:04;101875.19;;;25.98;47.14
69245;BME280;56357;52.304;4.870;2023-06-10T09:43:42;101875.50;;;25.96;46.95
69245;BME280;56357;52.304;4.870;2023-06-10T09:46:16;101868.38;;;25.99;47.03
69245;BME280;56357;52.304;4.870;2023-06-10T09:48:44;101874.50;;;26.06;46.71
69245;BME280;56357;52.304;4.870;2023-06-10T09:51:12;101879.56;;;26.09;47.00
69245;BME280;56357;52.304;4.870;2023-06-10T09:53:39;101877.34;;;26.06;47.03
69245;BME280;56357;52.304;4.870;2023-06-10T09:56:06;101879.88;;;26.07;47.59
69245;BME280;56357;52.304;4.870;2023-06-10T09:58:36;101886.94;;;26.10;47.54
69245;BME280;56357;52.304;4.870;2023-06-10T10:01:08;101883.56;;;26.08;47.52
69245;BME280;56357;52.304;4.870;2023-06-10T10:03:45;101874.94;;;26.13;47.10
69245;BME280;56357;52.304;4.870;2023-06-10T10:06:16;101879.81;;;26.12;47.16
69245;BME280;56357;52.304;4.870;2023-06-10T10:08:45;101875.56;;;26.10;47.59
69245;BME280;56357;52.304;4.870;2023-06-10T10:11:12;101876.22;;;26.20;47.57
69245;BME280;56357;52.304;4.870;2023-06-10T10:13:39;101869.50;;;26.16;47.97
69245;BME280;56357;52.304;4.870;2023-06-10T10:16:11;101876.69;;;26.27;46.79
69245;BME280;56357;52.304;4.870;2023-06-10T10:18:43;101868.03;;;26.19;47.86
69245;BME280;56357;52.304;4.870;2023-06-10T10:21:13;101876.75;;;26.22;47.71
69245;BME280;56357;52.304;4.870;2023-06-10T10:24:03;101872.25;;;26.21;48.12
69245;BME280;56357;52.304;4.870;2023-06-10T10:26:33;101873.09;;;26.22;47.83
69245;BME280;56357;52.304;4.870;2023-06-10T10:29:14;101875.19;;;26.30;48.04
69245;BME280;56357;52.304;4.870;2023-06-10T10:31:43;101871.13;;;26.36;47.57
69245;BME280;56357;52.304;4.870;2023-06-10T10:34:15;101872.91;;;26.32;48.34
69245;BME280;56357;52.304;4.870;2023-06-10T10:36:42;101866.94;;;26.34;48.39
69245;BME280;56357;52.304;4.870;2023-06-10T10:39:10;101864.63;;;26.36;47.40
69245;BME280;56357;52.304;4.870;2023-06-10T10:41:37;101859.69;;;26.41;47.43
69245;BME280;56357;52.304;4.870;2023-06-10T10:44:06;101863.97;;;26.39;48.09
69245;BME280;56357;52.304;4.870;2023-06-10T10:46:48;101855.47;;;26.39;47.70
69245;BME280;56357;52.304;4.870;2023-06-10T10:49:15;101859.47;;;26.38;48.04
69245;BME280;56357;52.304;4.870;2023-06-10T10:52:00;101862.00;;;26.39;48.41
69245;BME280;56357;52.304;4.870;2023-06-10T10:54:30;101860.75;;;26.45;47.63
69245;BME280;56357;52.304;4.870;2023-06-10T11:02:19;101848.94;;;26.52;47.72
69245;BME280;56357;52.304;4.870;2023-06-10T11:04:58;101844.75;;;26.49;47.99
69245;BME280;56357;52.304;4.870;2023-06-10T11:07:25;101848.09;;;26.51;47.79
69245;BME280;56357;52.304;4.870;2023-06-10T11:10:11;101851.47;;;26.53;47.72
69245;BME280;56357;52.304;4.870;2023-06-10T11:15:11;101844.00;;;26.57;47.72
69245;BME280;56357;52.304;4.870;2023-06-10T11:18:08;101838.84;;;26.59;47.34
69245;BME280;56357;52.304;4.870;2023-06-10T11:23:40;101833.38;;;26.63;47.83
69245;BME280;56357;52.304;4.870;2023-06-10T11:31:19;101838.44;;;26.66;47.68
69245;BME280;56357;52.304;4.870;2023-06-10T11:36:27;101819.31;;;26.71;46.95
69245;BME280;56357;52.304;4.870;2023-06-10T11:39:01;101818.66;;;26.74;47.26
69245;BME280;56357;52.304;4.870;2023-06-10T11:41:30;101820.06;;;26.77;46.82
69245;BME280;56357;52.304;4.870;2023-06-10T11:44:05;101814.03;;;26.78;47.96
69245;BME280;56357;52.304;4.870;2023-06-10T11:46:33;101818.25;;;26.81;47.48
69245;BME280;56357;52.304;4.870;2023-06-10T11:49:01;101820.06;;;26.77;47.78
69245;BME280;56357;52.304;4.870;2023-06-10T11:51:31;101816.69;;;26.75;47.66
69245;BME280;56357;52.304;4.870;2023-06-10T11:53:58;101821.75;;;26.78;47.61
69245;BME280;56357;52.304;4.870;2023-06-10T11:56:28;101817.31;;;26.85;47.50
69245;BME280;56357;52.304;4.870;2023-06-10T11:59:00;101823.53;;;26.87;47.43
69245;BME280;56357;52.304;4.870;2023-06-10T12:01:30;101816.16;;;26.86;47.83
69245;BME280;56357;52.304;4.870;2023-06-10T12:04:04;101823.94;;;26.94;46.91
69245;BME280;56357;52.304;4.870;2023-06-10T12:06:45;101806.22;;;26.97;46.79
69245;BME280;56357;52.304;4.870;2023-06-10T12:09:26;101810.88;;;26.93;47.05
69245;BME280;56357;52.304;4.870;2023-06-10T12:12:02;101804.38;;;26.93;47.61
69245;BME280;56357;52.304;4.870;2023-06-10T12:14:57;101803.50;;;26.92;46.93
69245;BME280;56357;52.304;4.870;2023-06-10T12:19:57;101795.09;;;27.01;46.91
69245;BME280;56357;52.304;4.870;2023-06-10T12:22:24;101801.84;;;26.91;47.57
69245;BME280;56357;52.304;4.870;2023-06-10T12:25:02;101791.41;;;27.00;46.98
69245;BME280;56357;52.304;4.870;2023-06-10T12:27:30;101796.34;;;27.08;45.57
69245;BME280;56357;52.304;4.870;2023-06-10T12:29:58;101796.44;;;27.03;47.54
69245;BME280;56357;52.304;4.870;2023-06-10T12:32:39;101793.50;;;27.08;46.83
69245;BME280;56357;52.304;4.870;2023-06-10T12:35:06;101798.41;;;27.16;46.15
69245;BME280;56357;52.304;4.870;2023-06-10T12:37:33;101788.72;;;27.17;46.52
69245;BME280;56357;52.304;4.870;2023-06-10T12:40:02;101795.25;;;27.18;46.48
69245;BME280;56357;52.304;4.870;2023-06-10T12:42:29;101782.91;;;27.23;46.99
69245;BME280;56357;52.304;4.870;2023-06-10T12:44:58;101787.25;;;27.20;46.43
69245;BME280;56357;52.304;4.870;2023-06-10T12:47:30;101787.25;;;27.20;47.12
69245;BME280;56357;52.304;4.870;2023-06-10T12:49:58;101786.41;;;27.20;46.59
69245;BME280;56357;52.304;4.870;2023-06-10T12:52:25;101783.03;;;27.17;46.56
69245;BME280;56357;52.304;4.870;2023-06-10T12:54:53;101785.22;;;27.21;46.86
69245;BME280;56357;52.304;4.870;2023-06-10T12:57:20;101781.09;;;27.27;46.51
69245;BME280;56357;52.304;4.870;2023-06-10T12:59:46;101789.84;;;27.30;46.39
69245;BME280;56357;52.304;4.870;2023-06-10T13:02:18;101787.31;;;27.29;46.63
69245;BME280;56357;52.304;4.870;2023-06-10T13:04:44;101788.91;;;27.35;46.99
69245;BME280;56357;52.304;4.870;2023-06-10T13:07:11;101793.31;;;27.41;46.12
69245;BME280;56357;52.304;4.870;2023-06-10T13:09:38;101784.66;;;27.46;46.27
69245;BME280;56357;52.304;4.870;2023-06-10T13:12:05;101788.53;;;27.50;45.87
69245;BME280;56357;52.304;4.870;2023-06-10T13:14:31;101782.53;;;27.51;46.00
69245;BME280;56357;52.304;4.870;2023-06-10T13:16:58;101774.84;;;27.52;46.32
69245;BME280;56357;52.304;4.870;2023-06-10T13:19:24;101783.22;;;27.57;45.82
69245;BME280;56357;52.304;4.870;2023-06-10T13:21:52;101778.72;;;27.56;45.66